Cherokee, Texas
Current Conditions -  °F | °C
As of 7:10 AM on Thursday 30 Oct 2014 (Local Time) from KAQO Reporting Station
Few Clouds Few Clouds  
Wind Chill: 57°   Ceiling: Unl
Heat Index: 57°   Visibility: 10mi
Dew Point: 55°   Wind: 0mph
Humidity: 94%   Direction: NA
Pressure: 30.16"   Gusts: NA
Location:  30.98°N, 98.71°W
Report Text: KAQO 301210Z AUTO 00000KT 10SM FEW033 14/13 A3016 RMK AO2
Loading
Personal Weather Stations






























Interactive Weather Map
Tropical Storm Tracking
New forecast layout! Learn more

10-Day Weather Forecast

Advertisements
Track Severe Weather on mobile